Portada
METAR-TAF:

METAR-TAF

Aeroports :

Mae Sot, Tailàndia

latitud: 16-40N, longitud: 098-33E, altitud: 196 m

Observació

L'informe es va fer fa 47 minuts, a les 06:00 UTC
Vent 11 kt del Est, variant entre Nord-Est i Est/Sud-Est
Temperatura 32°C
Humitat 43%
Pressió 1013 hPa
Visibilitat 10 km o més
Núvols disperses a una alçada de 3000 ft

METAR: VTPM 260600Z 08011KT 050V120 9999 SCT030 32/18 Q1013 NOSIG

Hora: 13:47 (06:47 UTC)

Pronòstic

L'informe es va fer fa 1 hora i 47 minuts, a les 05:00 UTC
Pronòstic vàlid del 26 a les 06 UTC al 27 a les 06 UTC
Vent 5 kt del Est/Nord-Est
Visibilitat 10 km o més
Escasses núvols a una alçada de 3000 ft

TAF: VTPM 260500Z 2606/2706 06005KT 9999 FEW030

Observacions i pronòstics meteorològics de més de 4000 aeroports (METAR i TAF).

Les estacions disponibles són els punts grocs i vermells al mapa.

Posi el ratolí al punt desitjat per veure el nom de l'estació.

Feu clic per veure les observacions i els pronòstics meteorològics.

Per canviar el mapa: feu clic els botons verds amb una creu de color negre per apropar; al botó verd amb un guió per allunyar la imatge; o en les fletxes verdes per a mapes adjacents.


METAR-TAF: